sensor_id;sensor_type;location;lat;lon;timestamp;P1;durP1;ratioP1;P2;durP2;ratioP2
34317;SDS011;20582;52.196;20.952;2023-12-28T00:02:17;57.05;;;22.95;;
34317;SDS011;20582;52.196;20.952;2023-12-28T00:04:43;47.70;;;22.15;;
34317;SDS011;20582;52.196;20.952;2023-12-28T00:07:09;47.35;;;21.33;;
34317;SDS011;20582;52.196;20.952;2023-12-28T00:09:35;55.80;;;23.05;;
34317;SDS011;20582;52.196;20.952;2023-12-28T00:12:01;53.15;;;22.13;;
34317;SDS011;20582;52.196;20.952;2023-12-28T00:14:27;58.78;;;24.13;;
34317;SDS011;20582;52.196;20.952;2023-12-28T00:16:53;50.50;;;22.33;;
34317;SDS011;20582;52.196;20.952;2023-12-28T00:19:19;45.90;;;21.65;;
34317;SDS011;20582;52.196;20.952;2023-12-28T00:21:46;50.88;;;22.58;;
34317;SDS011;20582;52.196;20.952;2023-12-28T00:24:12;44.47;;;21.20;;
34317;SDS011;20582;52.196;20.952;2023-12-28T00:26:38;48.72;;;22.30;;
34317;SDS011;20582;52.196;20.952;2023-12-28T00:29:03;48.63;;;22.42;;
34317;SDS011;20582;52.196;20.952;2023-12-28T00:31:29;49.60;;;20.42;;
34317;SDS011;20582;52.196;20.952;2023-12-28T00:33:55;50.88;;;21.90;;
34317;SDS011;20582;52.196;20.952;2023-12-28T00:36:21;50.85;;;21.67;;
34317;SDS011;20582;52.196;20.952;2023-12-28T00:38:48;48.83;;;20.98;;
34317;SDS011;20582;52.196;20.952;2023-12-28T00:41:14;46.47;;;20.98;;
34317;SDS011;20582;52.196;20.952;2023-12-28T00:43:40;45.40;;;20.52;;
34317;SDS011;20582;52.196;20.952;2023-12-28T00:46:06;38.40;;;19.30;;
34317;SDS011;20582;52.196;20.952;2023-12-28T00:48:32;50.30;;;20.42;;
34317;SDS011;20582;52.196;20.952;2023-12-28T00:50:58;45.05;;;20.50;;
34317;SDS011;20582;52.196;20.952;2023-12-28T00:53:24;48.28;;;20.85;;
34317;SDS011;20582;52.196;20.952;2023-12-28T00:55:51;52.45;;;21.55;;
34317;SDS011;20582;52.196;20.952;2023-12-28T00:58:17;51.35;;;22.58;;
34317;SDS011;20582;52.196;20.952;2023-12-28T01:00:43;56.38;;;21.80;;
34317;SDS011;20582;52.196;20.952;2023-12-28T01:03:09;52.83;;;22.67;;
34317;SDS011;20582;52.196;20.952;2023-12-28T01:05:35;46.05;;;21.10;;
34317;SDS011;20582;52.196;20.952;2023-12-28T01:08:01;48.63;;;21.38;;
34317;SDS011;20582;52.196;20.952;2023-12-28T01:10:27;52.25;;;21.80;;
34317;SDS011;20582;52.196;20.952;2023-12-28T01:12:53;42.55;;;19.90;;
34317;SDS011;20582;52.196;20.952;2023-12-28T01:15:19;54.65;;;21.40;;
34317;SDS011;20582;52.196;20.952;2023-12-28T01:17:45;48.38;;;20.00;;
34317;SDS011;20582;52.196;20.952;2023-12-28T01:20:11;43.65;;;20.08;;
34317;SDS011;20582;52.196;20.952;2023-12-28T01:22:37;46.72;;;19.30;;
34317;SDS011;20582;52.196;20.952;2023-12-28T01:25:04;43.72;;;18.52;;
34317;SDS011;20582;52.196;20.952;2023-12-28T01:27:30;41.30;;;18.38;;
34317;SDS011;20582;52.196;20.952;2023-12-28T01:29:56;42.05;;;18.75;;
34317;SDS011;20582;52.196;20.952;2023-12-28T01:32:22;44.33;;;19.27;;
34317;SDS011;20582;52.196;20.952;2023-12-28T01:34:48;48.95;;;19.10;;
34317;SDS011;20582;52.196;20.952;2023-12-28T01:37:14;47.50;;;18.55;;
34317;SDS011;20582;52.196;20.952;2023-12-28T01:39:40;41.25;;;17.73;;
34317;SDS011;20582;52.196;20.952;2023-12-28T01:42:05;36.50;;;16.60;;
34317;SDS011;20582;52.196;20.952;2023-12-28T01:44:31;40.25;;;17.40;;
34317;SDS011;20582;52.196;20.952;2023-12-28T01:46:58;37.20;;;17.13;;
34317;SDS011;20582;52.196;20.952;2023-12-28T01:49:24;41.13;;;17.23;;
34317;SDS011;20582;52.196;20.952;2023-12-28T01:51:50;39.80;;;16.88;;
34317;SDS011;20582;52.196;20.952;2023-12-28T01:54:16;34.97;;;15.32;;
34317;SDS011;20582;52.196;20.952;2023-12-28T01:56:43;37.10;;;15.93;;
34317;SDS011;20582;52.196;20.952;2023-12-28T01:59:10;35.15;;;14.40;;
34317;SDS011;20582;52.196;20.952;2023-12-28T02:01:36;40.45;;;14.98;;
34317;SDS011;20582;52.196;20.952;2023-12-28T02:04:02;36.80;;;15.00;;
34317;SDS011;20582;52.196;20.952;2023-12-28T02:06:28;37.47;;;14.55;;
34317;SDS011;20582;52.196;20.952;2023-12-28T02:08:54;41.92;;;14.82;;
34317;SDS011;20582;52.196;20.952;2023-12-28T02:11:20;32.22;;;13.45;;
34317;SDS011;20582;52.196;20.952;2023-12-28T02:13:46;32.08;;;13.68;;
34317;SDS011;20582;52.196;20.952;2023-12-28T02:16:13;34.80;;;13.35;;
34317;SDS011;20582;52.196;20.952;2023-12-28T02:18:45;27.48;;;12.70;;
34317;SDS011;20582;52.196;20.952;2023-12-28T02:21:13;28.30;;;12.30;;
34317;SDS011;20582;52.196;20.952;2023-12-28T02:23:45;33.58;;;12.50;;
34317;SDS011;20582;52.196;20.952;2023-12-28T02:26:11;30.17;;;12.60;;
34317;SDS011;20582;52.196;20.952;2023-12-28T02:28:37;38.40;;;12.98;;
34317;SDS011;20582;52.196;20.952;2023-12-28T02:31:03;30.02;;;12.43;;
34317;SDS011;20582;52.196;20.952;2023-12-28T02:33:33;28.33;;;12.30;;
34317;SDS011;20582;52.196;20.952;2023-12-28T02:38:26;27.23;;;11.65;;
34317;SDS011;20582;52.196;20.952;2023-12-28T02:40:53;30.00;;;10.88;;
34317;SDS011;20582;52.196;20.952;2023-12-28T02:43:20;29.77;;;11.70;;
34317;SDS011;20582;52.196;20.952;2023-12-28T02:45:46;31.73;;;12.18;;
34317;SDS011;20582;52.196;20.952;2023-12-28T02:48:12;27.88;;;11.18;;
34317;SDS011;20582;52.196;20.952;2023-12-28T02:50:38;29.23;;;11.73;;
34317;SDS011;20582;52.196;20.952;2023-12-28T02:53:04;27.27;;;11.30;;
34317;SDS011;20582;52.196;20.952;2023-12-28T02:55:30;24.75;;;11.07;;
34317;SDS011;20582;52.196;20.952;2023-12-28T02:57:57;27.77;;;11.15;;
34317;SDS011;20582;52.196;20.952;2023-12-28T03:00:26;26.05;;;10.68;;
34317;SDS011;20582;52.196;20.952;2023-12-28T03:02:52;27.35;;;11.68;;
34317;SDS011;20582;52.196;20.952;2023-12-28T03:05:18;27.17;;;10.73;;
34317;SDS011;20582;52.196;20.952;2023-12-28T03:07:44;28.08;;;11.18;;
34317;SDS011;20582;52.196;20.952;2023-12-28T03:10:11;25.77;;;11.00;;
34317;SDS011;20582;52.196;20.952;2023-12-28T03:12:37;24.55;;;10.50;;
34317;SDS011;20582;52.196;20.952;2023-12-28T03:15:03;23.73;;;10.30;;
34317;SDS011;20582;52.196;20.952;2023-12-28T03:17:29;27.95;;;10.40;;
34317;SDS011;20582;52.196;20.952;2023-12-28T03:19:58;24.17;;;9.80;;
34317;SDS011;20582;52.196;20.952;2023-12-28T03:22:23;21.67;;;9.32;;
34317;SDS011;20582;52.196;20.952;2023-12-28T03:24:49;26.67;;;10.07;;
34317;SDS011;20582;52.196;20.952;2023-12-28T03:27:15;26.08;;;9.68;;
34317;SDS011;20582;52.196;20.952;2023-12-28T03:29:42;25.40;;;9.63;;
34317;SDS011;20582;52.196;20.952;2023-12-28T03:32:08;23.95;;;9.68;;
34317;SDS011;20582;52.196;20.952;2023-12-28T03:34:34;29.00;;;10.52;;
34317;SDS011;20582;52.196;20.952;2023-12-28T03:37:00;25.63;;;10.18;;
34317;SDS011;20582;52.196;20.952;2023-12-28T03:39:26;23.75;;;10.02;;
34317;SDS011;20582;52.196;20.952;2023-12-28T03:41:52;21.67;;;9.40;;
34317;SDS011;20582;52.196;20.952;2023-12-28T03:44:19;25.25;;;9.88;;
34317;SDS011;20582;52.196;20.952;2023-12-28T03:46:47;31.85;;;9.55;;
34317;SDS011;20582;52.196;20.952;2023-12-28T03:49:15;27.35;;;9.63;;
34317;SDS011;20582;52.196;20.952;2023-12-28T03:51:41;23.27;;;9.73;;
34317;SDS011;20582;52.196;20.952;2023-12-28T03:54:06;22.17;;;10.23;;
34317;SDS011;20582;52.196;20.952;2023-12-28T03:56:32;27.75;;;10.50;;
34317;SDS011;20582;52.196;20.952;2023-12-28T03:59:00;28.10;;;10.15;;
34317;SDS011;20582;52.196;20.952;2023-12-28T04:01:26;28.55;;;10.07;;
34317;SDS011;20582;52.196;20.952;2023-12-28T04:03:52;25.40;;;10.55;;
34317;SDS011;20582;52.196;20.952;2023-12-28T04:06:18;23.33;;;9.18;;
34317;SDS011;20582;52.196;20.952;2023-12-28T04:08:44;26.88;;;9.50;;
34317;SDS011;20582;52.196;20.952;2023-12-28T04:11:10;28.75;;;10.23;;
34317;SDS011;20582;52.196;20.952;2023-12-28T04:13:36;24.17;;;10.52;;
34317;SDS011;20582;52.196;20.952;2023-12-28T04:16:02;21.90;;;8.77;;
34317;SDS011;20582;52.196;20.952;2023-12-28T04:18:29;28.52;;;9.75;;
34317;SDS011;20582;52.196;20.952;2023-12-28T04:20:55;23.00;;;10.50;;
34317;SDS011;20582;52.196;20.952;2023-12-28T04:23:21;31.17;;;11.05;;
34317;SDS011;20582;52.196;20.952;2023-12-28T04:25:47;24.75;;;10.52;;
34317;SDS011;20582;52.196;20.952;2023-12-28T04:28:13;27.70;;;9.43;;
34317;SDS011;20582;52.196;20.952;2023-12-28T04:30:39;22.42;;;9.63;;
34317;SDS011;20582;52.196;20.952;2023-12-28T04:33:05;24.48;;;10.00;;
34317;SDS011;20582;52.196;20.952;2023-12-28T04:35:31;26.90;;;10.68;;
34317;SDS011;20582;52.196;20.952;2023-12-28T04:37:57;26.20;;;11.00;;
34317;SDS011;20582;52.196;20.952;2023-12-28T04:40:23;26.33;;;9.63;;
34317;SDS011;20582;52.196;20.952;2023-12-28T04:42:49;28.60;;;11.57;;
34317;SDS011;20582;52.196;20.952;2023-12-28T04:45:15;27.48;;;11.55;;
34317;SDS011;20582;52.196;20.952;2023-12-28T04:47:41;27.55;;;10.80;;
34317;SDS011;20582;52.196;20.952;2023-12-28T04:50:07;32.47;;;12.23;;
34317;SDS011;20582;52.196;20.952;2023-12-28T04:52:33;30.00;;;10.73;;
34317;SDS011;20582;52.196;20.952;2023-12-28T04:54:59;26.35;;;10.52;;
34317;SDS011;20582;52.196;20.952;2023-12-28T04:57:25;31.15;;;10.75;;
34317;SDS011;20582;52.196;20.952;2023-12-28T04:59:52;28.23;;;10.93;;
34317;SDS011;20582;52.196;20.952;2023-12-28T05:02:19;25.30;;;10.05;;
34317;SDS011;20582;52.196;20.952;2023-12-28T05:04:45;29.17;;;10.18;;
34317;SDS011;20582;52.196;20.952;2023-12-28T05:07:10;25.63;;;10.10;;
34317;SDS011;20582;52.196;20.952;2023-12-28T05:09:36;31.50;;;10.88;;
34317;SDS011;20582;52.196;20.952;2023-12-28T05:12:03;29.05;;;10.48;;
34317;SDS011;20582;52.196;20.952;2023-12-28T05:14:29;26.30;;;9.80;;
34317;SDS011;20582;52.196;20.952;2023-12-28T05:16:55;24.70;;;10.45;;
34317;SDS011;20582;52.196;20.952;2023-12-28T05:19:21;32.08;;;10.55;;
34317;SDS011;20582;52.196;20.952;2023-12-28T05:21:47;27.83;;;10.73;;
34317;SDS011;20582;52.196;20.952;2023-12-28T05:24:13;24.52;;;9.88;;
34317;SDS011;20582;52.196;20.952;2023-12-28T05:26:39;28.20;;;10.68;;
34317;SDS011;20582;52.196;20.952;2023-12-28T05:29:05;28.52;;;10.70;;
34317;SDS011;20582;52.196;20.952;2023-12-28T05:31:31;25.08;;;9.90;;
34317;SDS011;20582;52.196;20.952;2023-12-28T05:33:57;23.92;;;9.82;;
34317;SDS011;20582;52.196;20.952;2023-12-28T05:36:23;22.48;;;9.88;;
34317;SDS011;20582;52.196;20.952;2023-12-28T05:38:49;25.50;;;10.60;;
34317;SDS011;20582;52.196;20.952;2023-12-28T05:41:15;26.67;;;11.20;;
34317;SDS011;20582;52.196;20.952;2023-12-28T05:43:41;27.42;;;10.77;;
34317;SDS011;20582;52.196;20.952;2023-12-28T05:46:07;26.67;;;10.07;;
34317;SDS011;20582;52.196;20.952;2023-12-28T05:48:33;25.40;;;10.10;;
34317;SDS011;20582;52.196;20.952;2023-12-28T05:51:00;26.77;;;10.43;;
34317;SDS011;20582;52.196;20.952;2023-12-28T05:53:26;26.00;;;10.05;;
34317;SDS011;20582;52.196;20.952;2023-12-28T05:55:52;29.23;;;11.35;;
34317;SDS011;20582;52.196;20.952;2023-12-28T05:58:18;25.23;;;9.90;;
34317;SDS011;20582;52.196;20.952;2023-12-28T06:00:44;25.55;;;10.85;;
34317;SDS011;20582;52.196;20.952;2023-12-28T06:03:13;25.55;;;10.70;;
34317;SDS011;20582;52.196;20.952;2023-12-28T06:05:39;25.50;;;10.40;;
34317;SDS011;20582;52.196;20.952;2023-12-28T06:08:05;25.95;;;9.88;;
34317;SDS011;20582;52.196;20.952;2023-12-28T06:10:31;23.98;;;10.32;;
34317;SDS011;20582;52.196;20.952;2023-12-28T06:12:57;20.27;;;9.43;;
34317;SDS011;20582;52.196;20.952;2023-12-28T06:15:23;24.00;;;9.93;;
34317;SDS011;20582;52.196;20.952;2023-12-28T06:17:49;22.58;;;10.20;;
34317;SDS011;20582;52.196;20.952;2023-12-28T06:20:15;25.35;;;10.25;;
34317;SDS011;20582;52.196;20.952;2023-12-28T06:22:41;29.58;;;10.30;;
34317;SDS011;20582;52.196;20.952;2023-12-28T06:25:07;23.00;;;9.98;;
34317;SDS011;20582;52.196;20.952;2023-12-28T06:27:34;23.35;;;9.60;;
34317;SDS011;20582;52.196;20.952;2023-12-28T06:30:00;25.30;;;9.73;;
34317;SDS011;20582;52.196;20.952;2023-12-28T06:32:26;20.20;;;9.43;;
34317;SDS011;20582;52.196;20.952;2023-12-28T06:34:52;20.27;;;8.75;;
34317;SDS011;20582;52.196;20.952;2023-12-28T06:37:18;24.27;;;10.20;;
34317;SDS011;20582;52.196;20.952;2023-12-28T06:39:44;23.90;;;9.45;;
34317;SDS011;20582;52.196;20.952;2023-12-28T06:42:10;20.05;;;9.02;;
34317;SDS011;20582;52.196;20.952;2023-12-28T06:44:36;22.23;;;9.75;;
34317;SDS011;20582;52.196;20.952;2023-12-28T06:47:02;26.15;;;10.25;;
34317;SDS011;20582;52.196;20.952;2023-12-28T06:49:28;23.30;;;9.30;;
34317;SDS011;20582;52.196;20.952;2023-12-28T06:51:54;25.20;;;10.40;;
34317;SDS011;20582;52.196;20.952;2023-12-28T06:54:20;31.63;;;10.02;;
34317;SDS011;20582;52.196;20.952;2023-12-28T06:56:46;21.88;;;10.60;;
34317;SDS011;20582;52.196;20.952;2023-12-28T06:59:12;23.08;;;9.70;;
34317;SDS011;20582;52.196;20.952;2023-12-28T07:01:40;23.35;;;10.25;;
34317;SDS011;20582;52.196;20.952;2023-12-28T07:04:06;25.30;;;9.38;;
34317;SDS011;20582;52.196;20.952;2023-12-28T07:06:32;26.23;;;9.85;;
34317;SDS011;20582;52.196;20.952;2023-12-28T07:08:58;23.05;;;10.25;;
34317;SDS011;20582;52.196;20.952;2023-12-28T07:11:24;22.38;;;10.55;;
34317;SDS011;20582;52.196;20.952;2023-12-28T07:13:53;27.05;;;10.50;;
34317;SDS011;20582;52.196;20.952;2023-12-28T07:16:19;23.27;;;10.35;;
34317;SDS011;20582;52.196;20.952;2023-12-28T07:18:45;24.02;;;10.35;;
34317;SDS011;20582;52.196;20.952;2023-12-28T07:21:11;25.20;;;10.57;;
34317;SDS011;20582;52.196;20.952;2023-12-28T07:23:37;25.02;;;9.65;;
34317;SDS011;20582;52.196;20.952;2023-12-28T07:26:03;26.73;;;10.85;;
34317;SDS011;20582;52.196;20.952;2023-12-28T07:28:30;23.48;;;10.30;;
34317;SDS011;20582;52.196;20.952;2023-12-28T07:30:56;24.50;;;10.30;;
34317;SDS011;20582;52.196;20.952;2023-12-28T07:33:22;22.95;;;10.38;;
34317;SDS011;20582;52.196;20.952;2023-12-28T07:35:48;22.13;;;10.35;;
34317;SDS011;20582;52.196;20.952;2023-12-28T07:38:14;21.90;;;10.18;;
34317;SDS011;20582;52.196;20.952;2023-12-28T07:40:40;26.13;;;10.45;;
34317;SDS011;20582;52.196;20.952;2023-12-28T07:43:06;24.33;;;10.10;;
34317;SDS011;20582;52.196;20.952;2023-12-28T07:45:33;25.63;;;11.63;;
34317;SDS011;20582;52.196;20.952;2023-12-28T07:48:00;23.33;;;10.68;;
34317;SDS011;20582;52.196;20.952;2023-12-28T07:50:26;26.95;;;11.60;;
34317;SDS011;20582;52.196;20.952;2023-12-28T07:52:52;21.70;;;10.93;;
34317;SDS011;20582;52.196;20.952;2023-12-28T07:55:18;25.00;;;10.80;;
34317;SDS011;20582;52.196;20.952;2023-12-28T07:57:44;24.45;;;10.40;;
34317;SDS011;20582;52.196;20.952;2023-12-28T08:00:10;24.77;;;11.05;;
34317;SDS011;20582;52.196;20.952;2023-12-28T08:02:37;24.63;;;10.52;;
34317;SDS011;20582;52.196;20.952;2023-12-28T08:05:03;23.10;;;10.07;;
34317;SDS011;20582;52.196;20.952;2023-12-28T08:07:29;23.17;;;11.05;;
34317;SDS011;20582;52.196;20.952;2023-12-28T08:09:55;22.50;;;10.35;;
34317;SDS011;20582;52.196;20.952;2023-12-28T08:12:21;23.95;;;10.60;;
34317;SDS011;20582;52.196;20.952;2023-12-28T08:14:49;23.63;;;11.18;;
34317;SDS011;20582;52.196;20.952;2023-12-28T08:17:15;23.20;;;11.43;;
34317;SDS011;20582;52.196;20.952;2023-12-28T08:19:41;24.88;;;10.70;;
34317;SDS011;20582;52.196;20.952;2023-12-28T08:22:07;20.40;;;10.48;;
34317;SDS011;20582;52.196;20.952;2023-12-28T08:24:33;26.30;;;12.65;;
34317;SDS011;20582;52.196;20.952;2023-12-28T08:27:01;23.10;;;11.38;;
34317;SDS011;20582;52.196;20.952;2023-12-28T08:29:28;22.33;;;10.93;;
34317;SDS011;20582;52.196;20.952;2023-12-28T08:31:54;24.35;;;10.57;;
34317;SDS011;20582;52.196;20.952;2023-12-28T08:34:20;24.17;;;11.05;;
34317;SDS011;20582;52.196;20.952;2023-12-28T08:36:46;25.77;;;11.57;;
34317;SDS011;20582;52.196;20.952;2023-12-28T08:39:13;20.92;;;10.23;;
34317;SDS011;20582;52.196;20.952;2023-12-28T08:41:39;22.10;;;11.20;;
34317;SDS011;20582;52.196;20.952;2023-12-28T08:44:05;25.35;;;10.25;;
34317;SDS011;20582;52.196;20.952;2023-12-28T08:46:30;20.60;;;10.32;;
34317;SDS011;20582;52.196;20.952;2023-12-28T08:48:57;20.23;;;10.02;;
34317;SDS011;20582;52.196;20.952;2023-12-28T08:51:23;23.00;;;10.48;;
34317;SDS011;20582;52.196;20.952;2023-12-28T08:53:49;23.15;;;10.55;;
34317;SDS011;20582;52.196;20.952;2023-12-28T08:56:16;27.38;;;11.13;;
34317;SDS011;20582;52.196;20.952;2023-12-28T08:58:42;22.42;;;10.10;;
34317;SDS011;20582;52.196;20.952;2023-12-28T09:01:08;25.23;;;10.93;;
34317;SDS011;20582;52.196;20.952;2023-12-28T09:03:34;19.23;;;9.65;;
34317;SDS011;20582;52.196;20.952;2023-12-28T09:06:00;21.65;;;10.00;;
34317;SDS011;20582;52.196;20.952;2023-12-28T09:08:26;22.67;;;9.70;;
34317;SDS011;20582;52.196;20.952;2023-12-28T09:10:52;17.83;;;9.07;;
34317;SDS011;20582;52.196;20.952;2023-12-28T09:13:18;19.92;;;9.55;;
34317;SDS011;20582;52.196;20.952;2023-12-28T09:15:45;18.30;;;8.90;;
34317;SDS011;20582;52.196;20.952;2023-12-28T09:18:11;19.10;;;8.63;;
34317;SDS011;20582;52.196;20.952;2023-12-28T09:20:37;19.75;;;8.95;;
34317;SDS011;20582;52.196;20.952;2023-12-28T09:23:03;17.90;;;8.07;;
34317;SDS011;20582;52.196;20.952;2023-12-28T09:25:29;15.60;;;7.68;;
34317;SDS011;20582;52.196;20.952;2023-12-28T09:27:55;17.88;;;7.45;;
34317;SDS011;20582;52.196;20.952;2023-12-28T09:30:21;18.48;;;7.47;;
34317;SDS011;20582;52.196;20.952;2023-12-28T09:32:47;17.13;;;7.35;;
34317;SDS011;20582;52.196;20.952;2023-12-28T09:35:12;15.77;;;7.25;;
34317;SDS011;20582;52.196;20.952;2023-12-28T09:37:38;21.92;;;8.18;;
34317;SDS011;20582;52.196;20.952;2023-12-28T09:40:05;17.45;;;7.18;;
34317;SDS011;20582;52.196;20.952;2023-12-28T09:42:35;16.10;;;6.75;;
34317;SDS011;20582;52.196;20.952;2023-12-28T09:45:04;20.75;;;7.60;;
34317;SDS011;20582;52.196;20.952;2023-12-28T09:47:32;16.02;;;7.15;;
34317;SDS011;20582;52.196;20.952;2023-12-28T09:49:59;15.90;;;6.82;;
34317;SDS011;20582;52.196;20.952;2023-12-28T09:52:25;15.50;;;7.25;;
34317;SDS011;20582;52.196;20.952;2023-12-28T09:54:51;14.48;;;6.75;;
34317;SDS011;20582;52.196;20.952;2023-12-28T09:57:17;14.73;;;6.90;;
34317;SDS011;20582;52.196;20.952;2023-12-28T09:59:43;15.07;;;7.10;;
34317;SDS011;20582;52.196;20.952;2023-12-28T10:02:09;15.57;;;6.70;;
34317;SDS011;20582;52.196;20.952;2023-12-28T10:04:36;17.85;;;6.78;;
34317;SDS011;20582;52.196;20.952;2023-12-28T10:07:02;15.98;;;6.65;;
34317;SDS011;20582;52.196;20.952;2023-12-28T10:09:28;15.65;;;7.18;;
34317;SDS011;20582;52.196;20.952;2023-12-28T10:11:55;16.80;;;6.93;;
34317;SDS011;20582;52.196;20.952;2023-12-28T10:14:21;15.32;;;7.32;;
34317;SDS011;20582;52.196;20.952;2023-12-28T10:16:47;13.93;;;6.95;;
34317;SDS011;20582;52.196;20.952;2023-12-28T10:19:13;16.83;;;7.40;;
34317;SDS011;20582;52.196;20.952;2023-12-28T10:21:39;15.23;;;7.05;;
34317;SDS011;20582;52.196;20.952;2023-12-28T10:24:05;16.58;;;7.05;;
34317;SDS011;20582;52.196;20.952;2023-12-28T10:26:31;13.68;;;6.60;;
34317;SDS011;20582;52.196;20.952;2023-12-28T10:29:00;18.80;;;7.75;;
34317;SDS011;20582;52.196;20.952;2023-12-28T10:31:28;18.20;;;7.32;;
34317;SDS011;20582;52.196;20.952;2023-12-28T10:33:57;15.02;;;7.50;;
34317;SDS011;20582;52.196;20.952;2023-12-28T10:36:24;14.52;;;7.40;;
34317;SDS011;20582;52.196;20.952;2023-12-28T10:38:50;14.32;;;7.03;;
34317;SDS011;20582;52.196;20.952;2023-12-28T10:41:17;17.52;;;7.13;;
34317;SDS011;20582;52.196;20.952;2023-12-28T10:43:50;15.02;;;6.53;;
34317;SDS011;20582;52.196;20.952;2023-12-28T10:46:30;18.35;;;7.97;;
34317;SDS011;20582;52.196;20.952;2023-12-28T10:49:00;16.15;;;7.18;;
34317;SDS011;20582;52.196;20.952;2023-12-28T10:51:27;15.88;;;7.40;;
34317;SDS011;20582;52.196;20.952;2023-12-28T10:53:58;15.45;;;7.22;;
34317;SDS011;20582;52.196;20.952;2023-12-28T10:56:31;19.10;;;6.95;;
34317;SDS011;20582;52.196;20.952;2023-12-28T10:59:09;15.25;;;7.45;;
34317;SDS011;20582;52.196;20.952;2023-12-28T11:01:40;18.10;;;6.60;;
34317;SDS011;20582;52.196;20.952;2023-12-28T11:06:47;17.60;;;8.38;;
34317;SDS011;20582;52.196;20.952;2023-12-28T11:09:13;18.77;;;7.82;;
34317;SDS011;20582;52.196;20.952;2023-12-28T11:11:41;15.35;;;7.72;;
34317;SDS011;20582;52.196;20.952;2023-12-28T11:14:07;15.20;;;6.90;;
34317;SDS011;20582;52.196;20.952;2023-12-28T11:16:34;18.67;;;8.35;;
34317;SDS011;20582;52.196;20.952;2023-12-28T11:19:00;14.63;;;6.60;;
34317;SDS011;20582;52.196;20.952;2023-12-28T11:21:27;17.30;;;7.22;;
34317;SDS011;20582;52.196;20.952;2023-12-28T11:23:54;13.77;;;7.28;;
34317;SDS011;20582;52.196;20.952;2023-12-28T11:26:21;15.90;;;7.47;;
34317;SDS011;20582;52.196;20.952;2023-12-28T11:28:47;17.08;;;7.90;;
34317;SDS011;20582;52.196;20.952;2023-12-28T11:31:14;13.60;;;7.07;;
34317;SDS011;20582;52.196;20.952;2023-12-28T11:33:44;17.65;;;8.35;;
34317;SDS011;20582;52.196;20.952;2023-12-28T11:36:10;16.38;;;8.20;;
34317;SDS011;20582;52.196;20.952;2023-12-28T11:38:36;14.77;;;7.28;;
34317;SDS011;20582;52.196;20.952;2023-12-28T11:41:04;16.20;;;7.90;;
34317;SDS011;20582;52.196;20.952;2023-12-28T11:43:34;17.65;;;7.95;;
34317;SDS011;20582;52.196;20.952;2023-12-28T11:46:00;14.00;;;7.00;;
34317;SDS011;20582;52.196;20.952;2023-12-28T11:48:30;13.32;;;6.57;;
34317;SDS011;20582;52.196;20.952;2023-12-28T11:50:57;18.00;;;7.20;;
34317;SDS011;20582;52.196;20.952;2023-12-28T11:53:23;18.25;;;7.90;;
34317;SDS011;20582;52.196;20.952;2023-12-28T11:55:50;15.38;;;7.45;;
34317;SDS011;20582;52.196;20.952;2023-12-28T11:58:16;15.73;;;7.28;;
34317;SDS011;20582;52.196;20.952;2023-12-28T12:00:43;14.18;;;8.02;;
34317;SDS011;20582;52.196;20.952;2023-12-28T12:03:12;16.98;;;7.47;;
34317;SDS011;20582;52.196;20.952;2023-12-28T12:05:38;17.70;;;7.70;;
34317;SDS011;20582;52.196;20.952;2023-12-28T12:08:08;19.13;;;7.28;;
34317;SDS011;20582;52.196;20.952;2023-12-28T12:10:38;15.80;;;7.57;;
34317;SDS011;20582;52.196;20.952;2023-12-28T12:13:04;19.10;;;7.65;;
34317;SDS011;20582;52.196;20.952;2023-12-28T12:15:30;20.25;;;7.72;;
34317;SDS011;20582;52.196;20.952;2023-12-28T12:17:56;17.33;;;7.40;;
34317;SDS011;20582;52.196;20.952;2023-12-28T12:20:22;18.15;;;7.80;;
34317;SDS011;20582;52.196;20.952;2023-12-28T12:22:48;15.20;;;7.05;;
34317;SDS011;20582;52.196;20.952;2023-12-28T12:25:14;17.05;;;7.80;;
34317;SDS011;20582;52.196;20.952;2023-12-28T12:27:43;15.38;;;7.47;;
34317;SDS011;20582;52.196;20.952;2023-12-28T12:30:09;14.13;;;6.65;;
34317;SDS011;20582;52.196;20.952;2023-12-28T12:32:35;14.02;;;7.30;;
34317;SDS011;20582;52.196;20.952;2023-12-28T12:35:07;17.25;;;7.43;;
34317;SDS011;20582;52.196;20.952;2023-12-28T12:37:33;14.40;;;7.28;;
34317;SDS011;20582;52.196;20.952;2023-12-28T12:39:59;15.10;;;7.65;;
34317;SDS011;20582;52.196;20.952;2023-12-28T12:42:25;13.50;;;6.40;;
34317;SDS011;20582;52.196;20.952;2023-12-28T12:44:51;14.45;;;7.13;;
34317;SDS011;20582;52.196;20.952;2023-12-28T12:47:18;19.75;;;7.78;;
34317;SDS011;20582;52.196;20.952;2023-12-28T12:49:44;14.68;;;7.45;;
34317;SDS011;20582;52.196;20.952;2023-12-28T12:52:10;14.23;;;6.63;;
34317;SDS011;20582;52.196;20.952;2023-12-28T12:54:36;15.60;;;7.20;;
34317;SDS011;20582;52.196;20.952;2023-12-28T12:57:02;16.40;;;7.60;;
34317;SDS011;20582;52.196;20.952;2023-12-28T12:59:29;15.65;;;6.78;;
34317;SDS011;20582;52.196;20.952;2023-12-28T13:01:55;14.68;;;6.55;;
34317;SDS011;20582;52.196;20.952;2023-12-28T13:04:21;15.35;;;6.15;;
34317;SDS011;20582;52.196;20.952;2023-12-28T13:06:47;15.98;;;6.60;;
34317;SDS011;20582;52.196;20.952;2023-12-28T13:09:14;14.50;;;7.05;;
34317;SDS011;20582;52.196;20.952;2023-12-28T13:11:40;14.32;;;6.20;;
34317;SDS011;20582;52.196;20.952;2023-12-28T13:14:06;13.70;;;6.72;;
34317;SDS011;20582;52.196;20.952;2023-12-28T13:16:32;12.90;;;6.05;;
34317;SDS011;20582;52.196;20.952;2023-12-28T13:18:58;15.10;;;6.53;;
34317;SDS011;20582;52.196;20.952;2023-12-28T13:21:24;14.32;;;6.18;;
34317;SDS011;20582;52.196;20.952;2023-12-28T13:23:50;11.88;;;5.72;;
34317;SDS011;20582;52.196;20.952;2023-12-28T13:26:16;14.45;;;6.05;;
34317;SDS011;20582;52.196;20.952;2023-12-28T13:28:42;12.10;;;5.88;;
34317;SDS011;20582;52.196;20.952;2023-12-28T13:31:08;14.43;;;6.38;;
34317;SDS011;20582;52.196;20.952;2023-12-28T13:33:34;13.70;;;6.22;;
34317;SDS011;20582;52.196;20.952;2023-12-28T13:36:00;18.42;;;7.20;;
34317;SDS011;20582;52.196;20.952;2023-12-28T13:38:27;14.25;;;6.43;;
34317;SDS011;20582;52.196;20.952;2023-12-28T13:40:53;17.40;;;6.78;;
34317;SDS011;20582;52.196;20.952;2023-12-28T13:43:20;13.35;;;6.00;;
34317;SDS011;20582;52.196;20.952;2023-12-28T13:45:46;13.73;;;6.30;;
34317;SDS011;20582;52.196;20.952;2023-12-28T13:48:12;18.08;;;6.32;;
34317;SDS011;20582;52.196;20.952;2023-12-28T13:50:38;13.05;;;6.20;;
34317;SDS011;20582;52.196;20.952;2023-12-28T13:53:04;14.77;;;6.07;;
34317;SDS011;20582;52.196;20.952;2023-12-28T13:55:33;14.15;;;6.00;;
34317;SDS011;20582;52.196;20.952;2023-12-28T13:57:58;15.57;;;6.50;;
34317;SDS011;20582;52.196;20.952;2023-12-28T14:00:24;16.05;;;6.18;;
34317;SDS011;20582;52.196;20.952;2023-12-28T14:02:50;11.88;;;6.03;;
34317;SDS011;20582;52.196;20.952;2023-12-28T14:05:18;17.35;;;6.20;;
34317;SDS011;20582;52.196;20.952;2023-12-28T14:07:44;17.58;;;6.93;;
34317;SDS011;20582;52.196;20.952;2023-12-28T14:10:10;13.82;;;6.18;;
34317;SDS011;20582;52.196;20.952;2023-12-28T14:12:36;13.40;;;6.57;;
34317;SDS011;20582;52.196;20.952;2023-12-28T14:15:02;18.27;;;7.57;;
34317;SDS011;20582;52.196;20.952;2023-12-28T14:17:28;14.25;;;7.38;;